Nearby METAR Reports

 

EGEO - Oban, United Kingdom
Distance from station: SSW 18mi, 30km
Updated: 17/10/2021 13:50
NOT Current
Light drizzle, Mostly cloudy
Light drizzle, Mostly cloudy
 Wind from E
Wind: E 3 mph , 6 km/h
Temperature: 12°C
Dew Point: 11°C
Humidity: 94%
Barometer: 1010 hPa
Summary: Light Drizzle
Clouds: Mostly cloudy
Visibility: 6 miles , 9 km
Cloud details: Partly cloudy 122 m
Mostly cloudy 488 m
2021/10/17 12:50 EGEO 171250Z 08003KT 9000 -DZ SCT004 BKN016 12/11 Q1010
EGPU - Tiree, United Kingdom
Distance from station: WSW 64mi, 103km
Updated: 18/10/2021 01:20
Light drizzle, Mostly cloudy
Light drizzle, Mostly cloudy
 Wind from S
Wind: S 13 mph , 20 km/h
Temperature: 13°C
Dew Point: 13°C
Humidity: 100%
Barometer: 1009 hPa
Summary: Light Drizzle
Clouds: Mostly cloudy
Visibility: 2 miles , 3 km
Cloud details: Few Clouds 91 m
Mostly cloudy 366 m
2021/10/18 00:20 EGPU 180020Z AUTO 17011KT 2500 -DZ FEW003/// BKN012/// 13/13 Q1009
EGPF - Glasgow, United Kingdom
Distance from station: SSE 66mi, 107km
Updated: 18/10/2021 01:20
Mist, Overcast
Mist, Overcast
 Wind from E
Wind: E 3 mph , 6 km/h
Temperature: 12°C
Dew Point: 12°C
Humidity: 100%
Barometer: 1012 hPa
Summary: Mist
Clouds: Overcast
Visibility: 3 miles , 4 km
Cloud details: Mostly cloudy 30 m
Mostly cloudy 823 m
Overcast 945 m
2021/10/18 00:20 EGPF 180020Z AUTO 08003KT 4300 BR BKN001 BKN027 OVC031 12/12 Q1012
 
EGPE - Inverness, United Kingdom
Distance from station: NE 71mi, 114km
Updated: 18/10/2021 01:20
Overcast
Overcast
 Wind from NE
Wind: NE 2 mph , 4 km/h
Temperature: 11°C
Dew Point: 10°C
Humidity: 94%
Barometer: 1012 hPa
Clouds: Overcast
Visibility: 5 miles , 8 km
Cloud details: Few Clouds 183 m
Overcast 945 m
2021/10/18 00:20 EGPE 180020Z AUTO 05002KT 8000 FEW006/// OVC031/// 11/10 Q1012
EGPI - Islay/Port Ellen, United Kingdom
Distance from station: SSW 81mi, 131km
Updated: 18/10/2021 01:20
Partly cloudy
Partly cloudy
 Wind from SSE
Wind: SSE 9 mph , 15 km/h
Temperature: 13°C
Dew Point: 12°C
Humidity: 94%
Barometer: 1010 hPa
Clouds: Partly cloudy
Visibility: 6 miles , 10 km
Cloud details: Mostly cloudy 488 m
Partly cloudy 701 m
2021/10/18 00:20 EGPI 180020Z AUTO 16008KT 120V180 9999 BKN016/// SCT023/// 13/12 Q1010
EGPN - Dundee/Riverside, United Kingdom
Distance from station: E 86mi, 138km
Updated: 17/10/2021 20:50
NOT Current
Light drizzle, Mostly cloudy
Light drizzle, Mostly cloudy
 Wind from E
Wind: E 6 mph , 9 km/h
Temperature: 12°C
Dew Point: 12°C
Humidity: 100%
Barometer: 1012 hPa
Summary: Light Drizzle
Clouds: Mostly cloudy
Visibility: 3 miles , 5 km
Cloud details: Mostly cloudy 183 m
2021/10/17 19:50 EGPN 171950Z 08005KT 4500 -DZ BKN006 12/12 Q1012 RERA
 
EGPK - Prestwick, United Kingdom
Distance from station: SSE 88mi, 141km
Updated: 18/10/2021 01:20
Overcast
Overcast
 Wind from SE
Wind: SE 5 mph , 7 km/h
Temperature: 13°C
Dew Point: 13°C
Humidity: 100%
Barometer: 1012 hPa
Clouds: Overcast
Visibility: 6 miles , 10 km
Cloud details: Overcast 914 m
2021/10/18 00:20 EGPK 180020Z 13004KT 9999 OVC030 13/13 Q1012
EGPH - Edinburgh, United Kingdom
Distance from station: SE 89mi, 143km
Updated: 18/10/2021 01:20
Fog
Fog
 Wind from W
Wind: W 1 mph , 2 km/h
Temperature: 11°C
Dew Point: 11°C
Humidity: 100%
Barometer: 1012 hPa
Summary: Fog
Visibility: 0 mile , 1 km
2021/10/18 00:20 EGPH 180020Z 27001KT 0550 R06/0600 FG VV/// 11/11 Q1012
EGQK - RAF Kinloss, United Kingdom
Distance from station: NE 90mi, 144km
Updated: 18/10/2021 00:50
Mostly cloudy
Mostly cloudy
 Wind from varies
Wind: varies 0 mph , 0 km/h
Temperature: 12°C
Dew Point: 11°C
Humidity: 94%
Barometer: 1011 hPa
Clouds: Mostly cloudy
Visibility: 6 miles , 10 km
Cloud details: Few Clouds 1067 m
Mostly cloudy 1280 m
Mostly cloudy 1524 m
2021/10/17 23:50 EGQK 172350Z AUTO /////KT 9999 FEW035/// BKN042/// BKN050/// 12/11 Q1011
 
EGEC - Campbeltown, United Kingdom
Distance from station: S 90mi, 145km
Updated: 02/10/2021 09:50
NOT Current
Clear
Clear
 Wind from SSE
Wind: SSE 8 mph , 13 km/h
Temperature: 10°C
Wind Chill: 8°C
Dew Point: 8°C
Humidity: 88%
Barometer: 990 hPa
Summary: Clear
Visibility: greater than 7 miles , 10 km
2021/10/02 08:50 EGEC 020850Z 15007KT CAVOK 10/08 Q0990
EGQA - Tain Range, United Kingdom
Distance from station: NNE 91mi, 146km
Updated: 15/10/2021 10:50
NOT Current
Few Clouds
Few Clouds
 Wind from SW
Wind: SW 7 mph , 11 km/h
Clouds: Few Clouds
Visibility: 6 miles , 10 km
Cloud details: Few Clouds 762 m
2021/10/15 09:50 EGQA 150950Z 23006KT 9999 FEW025 08/// Q1021 RMK BLU
EGQL - RAF Leuchars, United Kingdom
Distance from station: ESE 93mi, 149km
Updated: 18/10/2021 00:50
Fog
Fog
 Wind from NE
Wind: NE 2 mph , 4 km/h
Temperature: 12°C
Dew Point: 12°C
Humidity: 100%
Barometer: 1012 hPa
Summary: Fog
Visibility: 0 mile , 0 km
2021/10/17 23:50 EGQL 172350Z 05002KT 0400 FG VV/// 12/12 Q1012 RMK RED
 
EGPL - Benbecula, United Kingdom
Distance from station: WNW 96mi, 154km
Updated: 18/10/2021 01:20
Mist, Overcast
Mist, Overcast
 Wind from SE
Wind: SE 13 mph , 20 km/h
Temperature: 13°C
Dew Point: 12°C
Humidity: 94%
Barometer: 1009 hPa
Summary: Mist
Clouds: Overcast
Visibility: 3 miles , 5 km
Cloud details: Overcast 30 m
2021/10/18 00:20 EGPL 180020Z AUTO 13011KT 5000 BR OVC001/// 13/12 Q1009
EGQS - RAF Lossiemouth, United Kingdom
Distance from station: NE 99mi, 160km
Updated: 18/10/2021 00:50
Mostly cloudy
Mostly cloudy
 Wind from E
Wind: E 7 mph , 11 km/h
Temperature: 12°C
Dew Point: 11°C
Humidity: 94%
Barometer: 1012 hPa
Clouds: Mostly cloudy
Visibility: 6 miles , 10 km
Cloud details: Mostly cloudy 335 m
Mostly cloudy 1158 m
2021/10/17 23:50 EGQS 172350Z 09006KT 9999 BKN011 BKN038 12/11 Q1012 RMK GRN
EGPO - Stornoway, United Kingdom
Distance from station: NNW 111mi, 179km
Updated: 18/10/2021 01:20
Mostly cloudy
Mostly cloudy
 Wind from ESE
Wind: ESE 8 mph , 13 km/h
Temperature: 12°C
Dew Point: 11°C
Humidity: 94%
Barometer: 1010 hPa
Clouds: Mostly cloudy
Visibility: 6 miles , 10 km
Cloud details: Partly cloudy 671 m
Mostly cloudy 1036 m
2021/10/18 00:20 EGPO 180020Z 12007KT 9999 SCT022 BKN034 12/11 Q1010
 
EGPD - Aberdeen/Dyce, United Kingdom
Distance from station: ENE 118mi, 190km
Updated: 18/10/2021 01:20
Mist, Overcast
Mist, Overcast
 Wind from ESE
Wind: ESE 7 mph , 11 km/h
Temperature: 12°C
Dew Point: 11°C
Humidity: 94%
Barometer: 1013 hPa
Summary: Mist
Clouds: Overcast
Visibility: 2 miles , 3 km
Cloud details: Overcast 61 m
2021/10/18 00:20 EGPD 180020Z AUTO 11006KT 2600 BR OVC002 12/11 Q1013 TEMPO 1400
EGAE - Eglinton/Londond, United Kingdom
Distance from station: SSW 138mi, 222km
Updated: 17/10/2021 20:20
NOT Current
Mostly cloudy
Mostly cloudy
 Wind from SSW
Wind: SSW 6 mph , 9 km/h
Temperature: 14°C
Dew Point: 14°C
Humidity: 100%
Barometer: 1010 hPa
Clouds: Mostly cloudy
Visibility: 6 miles , 10 km
Cloud details: Few Clouds 244 m
Partly cloudy 305 m
Mostly cloudy 549 m
2021/10/17 19:20 EGAE 171920Z 20005KT 9999 FEW008 SCT010 BKN018 14/14 Q1010
EGPC - Wick, United Kingdom
Distance from station: NNE 144mi, 232km
Updated: 18/10/2021 01:20
Overcast
Overcast
 Wind from ESE
Wind: ESE 20 mph , 31 km/h
Temperature: 11°C
Dew Point: 10°C
Humidity: 94%
Barometer: 1013 hPa
Clouds: Overcast
Visibility: 6 miles , 10 km
Cloud details: Overcast 152 m
2021/10/18 00:20 EGPC 180020Z AUTO 11017KT 9999 OVC005/// 11/10 Q1013

Metar display script from Saratoga-Weather.org